createdAt,value
2023-04-20T00:02:16.509Z,9.17
2023-04-20T00:04:44.675Z,9.15
2023-04-20T00:07:12.982Z,9.14
2023-04-20T00:09:40.967Z,9.13
2023-04-20T00:12:09.656Z,9.12
2023-04-20T00:14:37.844Z,9.12
2023-04-20T00:17:06.236Z,9.12
2023-04-20T00:19:34.820Z,9.10
2023-04-20T00:22:03.115Z,9.09
2023-04-20T00:24:31.404Z,9.07
2023-04-20T00:26:59.589Z,9.03
2023-04-20T00:29:28.037Z,9.00
2023-04-20T00:31:56.231Z,8.95
2023-04-20T00:34:24.420Z,8.91
2023-04-20T00:36:52.544Z,8.85
2023-04-20T00:39:21.394Z,8.80
2023-04-20T00:41:49.678Z,8.75
2023-04-20T00:44:17.967Z,8.69
2023-04-20T00:46:46.296Z,8.63
2023-04-20T00:49:14.323Z,8.60
2023-04-20T00:51:43.005Z,8.57
2023-04-20T00:54:13.051Z,8.54
2023-04-20T00:56:44.113Z,8.53
2023-04-20T00:59:12.385Z,8.52
2023-04-20T01:01:41.395Z,8.50
2023-04-20T01:04:09.767Z,8.49
2023-04-20T01:06:38.459Z,8.49
2023-04-20T01:09:06.938Z,8.48
2023-04-20T01:11:35.051Z,8.46
2023-04-20T01:14:03.303Z,8.44
2023-04-20T01:16:36.558Z,8.42
2023-04-20T01:19:05.922Z,8.40
2023-04-20T01:21:35.456Z,8.39
2023-04-20T01:24:03.753Z,8.37
2023-04-20T01:26:33.978Z,8.37
2023-04-20T01:29:02.243Z,8.37
2023-04-20T01:31:31.203Z,8.39
2023-04-20T01:33:59.535Z,8.41
2023-04-20T01:36:27.612Z,8.42
2023-04-20T01:38:55.842Z,8.43
2023-04-20T01:41:24.682Z,8.44
2023-04-20T01:43:52.863Z,8.46
2023-04-20T01:46:21.410Z,8.48
2023-04-20T01:48:49.652Z,8.50
2023-04-20T01:51:17.718Z,8.52
2023-04-20T01:53:45.926Z,8.54
2023-04-20T01:56:14.325Z,8.56
2023-04-20T01:58:42.565Z,8.57
2023-04-20T02:01:11.612Z,8.57
2023-04-20T02:03:40.056Z,8.58
2023-04-20T02:06:08.544Z,8.60
2023-04-20T02:08:37.028Z,8.60
2023-04-20T02:11:06.580Z,8.61
2023-04-20T02:13:37.106Z,8.60
2023-04-20T02:16:06.418Z,8.59
2023-04-20T02:18:34.994Z,8.57
2023-04-20T02:21:03.598Z,8.55
2023-04-20T02:23:32.279Z,8.53
2023-04-20T02:26:00.773Z,8.52
2023-04-20T02:28:29.051Z,8.50
2023-04-20T02:30:57.153Z,8.49
2023-04-20T02:33:25.716Z,8.47
2023-04-20T02:35:54.706Z,8.46
2023-04-20T02:38:22.892Z,8.46
2023-04-20T02:40:50.973Z,8.46
2023-04-20T02:43:19.146Z,8.46
2023-04-20T02:45:48.066Z,8.45
2023-04-20T02:48:17.053Z,8.44
2023-04-20T02:50:45.132Z,8.45
2023-04-20T02:53:17.748Z,8.45
2023-04-20T02:55:47.970Z,8.46
2023-04-20T02:58:25.319Z,8.48
2023-04-20T03:01:19.778Z,8.50
2023-04-20T03:03:49.835Z,8.53
2023-04-20T03:06:18.513Z,8.54
2023-04-20T03:08:54.193Z,8.55
2023-04-20T03:11:54.575Z,8.57
2023-04-20T03:14:36.500Z,8.58
2023-04-20T03:17:04.561Z,8.59
2023-04-20T03:19:33.141Z,8.59
2023-04-20T03:22:01.262Z,8.59
2023-04-20T03:24:30.630Z,8.59
2023-04-20T03:26:59.755Z,8.58
2023-04-20T03:29:41.693Z,8.58
2023-04-20T03:32:10.185Z,8.56
2023-04-20T03:34:38.560Z,8.53
2023-04-20T03:37:07.384Z,8.52
2023-04-20T03:39:35.738Z,8.51
2023-04-20T03:42:07.256Z,8.50
2023-04-20T03:44:36.162Z,8.52
2023-04-20T03:47:06.410Z,8.52
2023-04-20T03:49:35.578Z,8.53
2023-04-20T03:52:03.896Z,8.54
2023-04-20T03:54:32.804Z,8.55
2023-04-20T03:57:02.327Z,8.57
2023-04-20T03:59:30.934Z,8.59
2023-04-20T04:02:00.141Z,8.60
2023-04-20T04:04:35.058Z,8.61
2023-04-20T04:07:03.359Z,8.62
2023-04-20T04:09:32.555Z,8.64
2023-04-20T04:12:01.575Z,8.66
2023-04-20T04:14:30.356Z,8.68
2023-04-20T04:16:59.705Z,8.70
2023-04-20T04:19:28.069Z,8.71
2023-04-20T04:21:56.249Z,8.71
2023-04-20T04:24:24.749Z,8.71
2023-04-20T04:27:17.028Z,8.72
2023-04-20T04:29:52.756Z,8.74
2023-04-20T04:32:30.836Z,8.77
2023-04-20T04:35:01.352Z,8.80
2023-04-20T04:37:31.721Z,8.83
2023-04-20T04:40:00.140Z,8.86
2023-04-20T04:42:36.120Z,8.88
2023-04-20T04:45:07.512Z,8.91
2023-04-20T04:47:43.671Z,8.93
2023-04-20T04:50:13.614Z,8.96
2023-04-20T04:52:42.160Z,8.99
2023-04-20T04:55:10.566Z,9.01
2023-04-20T04:57:39.368Z,9.04
2023-04-20T05:00:12.582Z,9.07
2023-04-20T05:02:41.029Z,9.10
2023-04-20T05:05:12.181Z,9.11
2023-04-20T05:07:50.032Z,9.14
2023-04-20T05:10:28.112Z,9.18
2023-04-20T05:12:58.660Z,9.21
2023-04-20T05:15:29.554Z,9.23
2023-04-20T05:18:02.864Z,9.26
2023-04-20T05:20:36.014Z,9.29
2023-04-20T05:23:06.551Z,9.32
2023-04-20T05:25:34.767Z,9.34
2023-04-20T05:28:03.122Z,9.37
2023-04-20T05:30:31.471Z,9.42
2023-04-20T05:32:59.752Z,9.49
2023-04-20T05:35:28.102Z,9.54
2023-04-20T05:37:56.576Z,9.59
2023-04-20T05:40:24.845Z,9.65
2023-04-20T05:42:52.993Z,9.74
2023-04-20T05:45:21.377Z,9.84
2023-04-20T05:47:56.368Z,9.92
2023-04-20T05:50:25.274Z,10.03
2023-04-20T05:52:54.283Z,10.14
2023-04-20T05:55:23.054Z,10.23
2023-04-20T05:57:52.408Z,10.34
2023-04-20T06:00:21.180Z,10.43
2023-04-20T06:02:50.470Z,10.51
2023-04-20T06:05:20.109Z,10.56
2023-04-20T06:07:48.339Z,10.61
2023-04-20T06:10:16.674Z,10.68
2023-04-20T06:12:45.004Z,10.76
2023-04-20T06:15:13.323Z,10.85
2023-04-20T06:17:42.023Z,10.90
2023-04-20T06:20:10.831Z,10.93
2023-04-20T06:22:44.424Z,10.99
2023-04-20T06:25:13.627Z,11.10
2023-04-20T06:27:42.287Z,11.23
2023-04-20T06:30:11.157Z,11.33
2023-04-20T06:32:39.464Z,11.43
2023-04-20T06:35:08.680Z,11.58
2023-04-20T06:37:36.868Z,11.73
2023-04-20T06:40:08.863Z,11.83
2023-04-20T06:42:37.775Z,11.95
2023-04-20T06:45:07.116Z,12.07
2023-04-20T06:47:35.677Z,12.16
2023-04-20T06:50:07.344Z,12.23
2023-04-20T06:54:52.697Z,12.41
2023-04-20T06:57:19.523Z,12.48
2023-04-20T06:59:48.830Z,12.52
2023-04-20T07:02:15.491Z,12.53
2023-04-20T07:04:42.517Z,12.55
2023-04-20T07:07:09.180Z,12.55
2023-04-20T07:09:36.041Z,12.53
2023-04-20T07:12:03.205Z,12.54
2023-04-20T07:14:30.398Z,12.56
2023-04-20T07:16:57.244Z,12.59
2023-04-20T07:19:24.053Z,12.59
2023-04-20T07:21:50.792Z,12.59
2023-04-20T07:24:17.523Z,12.66
2023-04-20T07:34:20.793Z,12.93
2023-04-20T07:36:49.553Z,12.97
2023-04-20T07:39:18.071Z,12.99
2023-04-20T07:41:46.757Z,13.00
2023-04-20T07:44:14.871Z,12.98
2023-04-20T07:46:42.990Z,12.95
2023-04-20T07:49:11.196Z,12.94
2023-04-20T07:51:39.313Z,12.93
2023-04-20T07:54:08.405Z,12.92
2023-04-20T07:56:37.358Z,12.88
2023-04-20T07:59:05.578Z,12.82
2023-04-20T08:01:33.968Z,12.77
2023-04-20T08:04:02.776Z,12.78
2023-04-20T08:06:33.149Z,12.82
2023-04-20T08:09:01.308Z,12.88
2023-04-20T08:11:29.631Z,12.92
2023-04-20T08:13:58.477Z,12.94
2023-04-20T08:16:26.591Z,12.95
2023-04-20T08:18:55.185Z,12.94
2023-04-20T08:21:25.483Z,12.92
2023-04-20T08:23:55.623Z,12.88
2023-04-20T08:26:25.472Z,12.87
2023-04-20T08:28:53.783Z,12.88
2023-04-20T08:31:21.980Z,12.88
2023-04-20T08:33:50.325Z,12.88
2023-04-20T08:36:18.894Z,12.92
2023-04-20T08:38:54.298Z,13.04
2023-04-20T08:41:22.535Z,13.19
2023-04-20T08:43:50.672Z,13.30
2023-04-20T08:46:19.286Z,13.42
2023-04-20T08:48:48.796Z,13.52
2023-04-20T08:51:18.300Z,13.66
2023-04-20T08:53:46.605Z,13.82
2023-04-20T08:56:14.742Z,13.97
2023-04-20T08:58:42.941Z,14.06
2023-04-20T09:01:12.742Z,14.10
2023-04-20T09:03:43.102Z,14.10
2023-04-20T09:06:16.123Z,14.04
2023-04-20T09:08:44.807Z,13.97
2023-04-20T09:11:22.846Z,13.90
2023-04-20T09:13:59.212Z,13.86
2023-04-20T09:16:27.266Z,13.85
2023-04-20T09:18:56.763Z,13.88
2023-04-20T09:21:26.647Z,13.94
2023-04-20T09:24:08.071Z,14.01
2023-04-20T09:26:36.378Z,14.06
2023-04-20T09:29:04.937Z,14.10
2023-04-20T09:31:33.538Z,14.12
2023-04-20T09:34:02.944Z,14.15
2023-04-20T09:36:38.308Z,14.26
2023-04-20T09:39:19.596Z,14.39
2023-04-20T09:41:48.239Z,14.47
2023-04-20T09:44:17.343Z,14.52
2023-04-20T09:46:46.665Z,14.55
2023-04-20T09:49:15.058Z,14.57
2023-04-20T09:51:46.549Z,14.60
2023-04-20T09:54:16.078Z,14.67
2023-04-20T09:56:44.895Z,14.70
2023-04-20T09:59:12.970Z,14.69
2023-04-20T10:01:41.255Z,14.66
2023-04-20T10:04:11.208Z,14.63
2023-04-20T10:06:39.983Z,14.60
2023-04-20T10:09:08.795Z,14.59
2023-04-20T10:11:52.479Z,14.69
2023-04-20T10:14:25.632Z,14.83
2023-04-20T10:17:07.124Z,14.86
2023-04-20T10:19:43.130Z,14.85
2023-04-20T10:22:13.135Z,14.91
2023-04-20T10:24:49.164Z,14.98
2023-04-20T10:27:25.707Z,15.01
2023-04-20T10:29:54.255Z,14.97
2023-04-20T10:32:29.091Z,14.95
2023-04-20T10:35:05.074Z,14.93
2023-04-20T10:37:34.226Z,14.88
2023-04-20T10:40:03.791Z,14.78
2023-04-20T10:42:44.884Z,14.70
2023-04-20T10:45:13.366Z,14.65
2023-04-20T10:47:41.751Z,14.64
2023-04-20T10:50:14.081Z,14.69
2023-04-20T10:52:43.590Z,14.75
2023-04-20T10:55:27.593Z,14.82
2023-04-20T10:57:55.758Z,14.95
2023-04-20T11:00:47.120Z,15.09
2023-04-20T11:03:15.519Z,15.22
2023-04-20T11:05:44.552Z,15.23
2023-04-20T11:08:12.491Z,15.15
2023-04-20T11:10:42.300Z,15.06
2023-04-20T11:13:23.700Z,14.95
2023-04-20T11:15:52.560Z,14.78
2023-04-20T11:18:21.582Z,14.64
2023-04-20T11:20:54.067Z,14.51
2023-04-20T11:23:23.968Z,14.43
2023-04-20T11:25:56.060Z,14.36
2023-04-20T11:28:24.194Z,14.35
2023-04-20T11:30:52.840Z,14.35
2023-04-20T11:33:31.300Z,14.36
2023-04-20T11:35:59.995Z,14.41
2023-04-20T11:38:32.774Z,14.50
2023-04-20T11:41:04.786Z,14.59
2023-04-20T11:43:33.057Z,14.62
2023-04-20T11:46:02.907Z,14.61
2023-04-20T11:48:31.643Z,14.58
2023-04-20T11:50:59.878Z,14.55
2023-04-20T11:53:27.942Z,14.52
2023-04-20T11:55:55.965Z,14.51
2023-04-20T11:58:26.648Z,14.57
2023-04-20T12:00:54.691Z,14.66
2023-04-20T12:03:23.067Z,14.76
2023-04-20T12:05:51.510Z,14.87
2023-04-20T12:08:20.591Z,14.98
2023-04-20T12:18:28.306Z,15.42
2023-04-20T12:20:56.702Z,15.46
2023-04-20T12:23:25.627Z,15.51
2023-04-20T12:25:54.006Z,15.57
2023-04-20T12:28:22.729Z,15.61
2023-04-20T12:30:51.047Z,15.63
2023-04-20T12:33:19.434Z,15.67
2023-04-20T12:35:48.823Z,15.72
2023-04-20T12:45:55.756Z,15.94
2023-04-20T12:48:23.975Z,15.89
2023-04-20T12:50:52.368Z,15.89
2023-04-20T12:53:20.606Z,15.92
2023-04-20T12:55:55.048Z,15.96
2023-04-20T12:58:29.278Z,15.99
2023-04-20T13:00:57.617Z,16.01
2023-04-20T13:03:26.488Z,15.99
2023-04-20T13:05:55.032Z,15.94
2023-04-20T13:08:23.367Z,15.86
2023-04-20T13:10:51.597Z,15.75
2023-04-20T13:13:19.781Z,15.66
2023-04-20T13:15:47.854Z,15.63
2023-04-20T13:18:17.423Z,15.62
2023-04-20T13:20:45.424Z,15.61
2023-04-20T13:23:15.373Z,15.61
2023-04-20T13:25:43.922Z,15.61
2023-04-20T13:28:14.501Z,15.61
2023-04-20T13:30:43.058Z,15.62
2023-04-20T13:33:11.322Z,15.65
2023-04-20T13:35:40.318Z,15.67
2023-04-20T13:38:08.524Z,15.70
2023-04-20T13:40:37.255Z,15.73
2023-04-20T13:43:05.510Z,15.73
2023-04-20T13:45:33.907Z,15.73
2023-04-20T13:48:02.223Z,15.74
2023-04-20T13:50:30.669Z,15.74
2023-04-20T13:52:58.767Z,15.71
2023-04-20T13:55:27.271Z,15.67
2023-04-20T13:57:55.646Z,15.60
2023-04-20T14:00:24.148Z,15.52
2023-04-20T14:02:52.573Z,15.44
2023-04-20T14:05:21.135Z,15.37
2023-04-20T14:07:49.511Z,15.29
2023-04-20T14:10:17.747Z,15.22
2023-04-20T14:12:45.980Z,15.16
2023-04-20T14:15:14.374Z,15.08
2023-04-20T14:17:42.780Z,14.99
2023-04-20T14:20:11.771Z,14.91
2023-04-20T14:22:40.682Z,14.80
2023-04-20T14:25:10.011Z,14.71
2023-04-20T14:27:38.954Z,14.65
2023-04-20T14:30:08.391Z,14.58
2023-04-20T14:32:36.824Z,14.50
2023-04-20T14:35:06.180Z,14.45
2023-04-20T14:37:34.398Z,14.39
2023-04-20T14:40:03.716Z,14.34
2023-04-20T14:42:32.072Z,14.29
2023-04-20T14:45:00.228Z,14.25
2023-04-20T14:47:28.898Z,14.22
2023-04-20T14:49:57.151Z,14.20
2023-04-20T14:52:25.633Z,14.18
2023-04-20T14:54:54.046Z,14.14
2023-04-20T14:57:22.517Z,14.06
2023-04-20T14:59:50.471Z,13.98
2023-04-20T15:02:18.834Z,13.88
2023-04-20T15:04:47.429Z,13.79
2023-04-20T15:07:15.847Z,13.71
2023-04-20T15:09:44.108Z,13.64
2023-04-20T15:12:12.307Z,13.55
2023-04-20T15:14:40.695Z,13.50
2023-04-20T15:17:09.039Z,13.46
2023-04-20T15:19:37.225Z,13.43
2023-04-20T15:22:05.426Z,13.40
2023-04-20T15:24:33.653Z,13.38
2023-04-20T15:27:02.519Z,13.36
2023-04-20T15:29:31.537Z,13.34
2023-04-20T15:31:59.823Z,13.34
2023-04-20T15:34:28.566Z,13.34
2023-04-20T15:36:56.606Z,13.34
2023-04-20T15:39:24.728Z,13.35
2023-04-20T15:41:53.093Z,13.37
2023-04-20T15:44:21.142Z,13.38
2023-04-20T15:46:49.134Z,13.39
2023-04-20T15:49:20.226Z,13.40
2023-04-20T15:51:48.613Z,13.41
2023-04-20T15:57:04.131Z,13.45
2023-04-20T15:59:32.687Z,13.43
2023-04-20T16:02:01.111Z,13.42
2023-04-20T16:04:30.107Z,13.39
2023-04-20T16:06:59.005Z,13.37
2023-04-20T16:09:27.812Z,13.36
2023-04-20T16:11:56.103Z,13.34
2023-04-20T16:14:24.406Z,13.33
2023-04-20T16:16:52.803Z,13.30
2023-04-20T16:19:20.985Z,13.27
2023-04-20T16:21:49.087Z,13.23
2023-04-20T16:24:17.623Z,13.19
2023-04-20T16:26:46.669Z,13.14
2023-04-20T16:29:14.749Z,13.12
2023-04-20T16:31:42.818Z,13.10
2023-04-20T16:34:11.035Z,13.09
2023-04-20T16:36:39.081Z,13.08
2023-04-20T16:39:07.774Z,13.06
2023-04-20T16:41:36.431Z,13.03
2023-04-20T16:44:04.898Z,13.01
2023-04-20T16:46:33.145Z,12.98
2023-04-20T16:49:01.414Z,12.95
2023-04-20T16:51:30.010Z,12.94
2023-04-20T16:53:58.111Z,12.92
2023-04-20T16:56:26.313Z,12.89
2023-04-20T16:58:54.492Z,12.84
2023-04-20T17:01:22.578Z,12.77
2023-04-20T17:03:51.903Z,12.71
2023-04-20T17:06:19.953Z,12.63
2023-04-20T17:08:49.396Z,12.55
2023-04-20T17:11:19.565Z,12.49
2023-04-20T17:13:47.795Z,12.41
2023-04-20T17:16:16.029Z,12.33
2023-04-20T17:26:30.459Z,12.12
2023-04-20T17:28:57.420Z,12.07
2023-04-20T17:31:24.122Z,12.02
2023-04-20T17:33:52.572Z,11.93
2023-04-20T17:36:19.297Z,11.82
2023-04-20T17:38:46.250Z,11.71
2023-04-20T17:41:12.900Z,11.59
2023-04-20T17:43:40.372Z,11.48
2023-04-20T17:46:07.750Z,11.37
2023-04-20T17:48:35.029Z,11.26
2023-04-20T17:51:02.100Z,11.20
2023-04-20T17:53:28.910Z,11.13
2023-04-20T17:55:55.569Z,11.07
2023-04-20T17:58:22.948Z,11.01
2023-04-20T18:00:50.696Z,10.95
2023-04-20T18:03:19.175Z,10.90
2023-04-20T18:05:46.329Z,10.85
2023-04-20T18:08:15.136Z,10.79
2023-04-20T18:10:42.152Z,10.75
2023-04-20T18:13:08.867Z,10.70
2023-04-20T18:15:35.738Z,10.66
2023-04-20T18:18:03.138Z,10.63
2023-04-20T18:20:32.394Z,10.60
2023-04-20T18:22:59.775Z,10.58
2023-04-20T18:25:26.688Z,10.55
2023-04-20T18:27:53.495Z,10.52
2023-04-20T18:30:20.590Z,10.49
2023-04-20T18:32:47.542Z,10.47
2023-04-20T18:35:15.093Z,10.45
2023-04-20T18:37:42.282Z,10.42
2023-04-20T18:40:09.687Z,10.40
2023-04-20T18:42:36.532Z,10.38
2023-04-20T18:45:05.521Z,10.34
2023-04-20T18:47:32.870Z,10.27
2023-04-20T18:50:00.264Z,10.22
2023-04-20T18:52:27.282Z,10.18
2023-04-20T18:54:54.785Z,10.16
2023-04-20T18:57:25.367Z,10.15
2023-04-20T18:59:52.778Z,10.15
2023-04-20T19:02:19.846Z,10.14
2023-04-20T19:04:46.728Z,10.14
2023-04-20T19:07:13.396Z,10.14
2023-04-20T19:12:09.051Z,10.16
2023-04-20T19:14:37.680Z,10.14
2023-04-20T19:17:06.956Z,10.14
2023-04-20T19:19:35.733Z,10.14
2023-04-20T19:22:04.729Z,10.13
2023-04-20T19:24:34.454Z,10.11
2023-04-20T19:27:02.488Z,10.10
2023-04-20T19:29:31.400Z,10.09
2023-04-20T19:31:59.590Z,10.08
2023-04-20T19:34:27.651Z,10.05
2023-04-20T19:36:55.940Z,10.03
2023-04-20T19:39:23.878Z,9.99
2023-04-20T19:41:52.193Z,9.95
2023-04-20T19:44:20.892Z,9.90
2023-04-20T19:46:50.018Z,9.85
2023-04-20T19:49:18.698Z,9.81
2023-04-20T19:51:47.472Z,9.77
2023-04-20T19:54:17.547Z,9.74
2023-04-20T19:56:45.857Z,9.70
2023-04-20T19:59:14.141Z,9.67
2023-04-20T20:01:42.259Z,9.62
2023-04-20T20:04:10.731Z,9.56
2023-04-20T20:06:39.458Z,9.51
2023-04-20T20:09:07.813Z,9.46
2023-04-20T20:11:36.136Z,9.43
2023-04-20T20:14:04.228Z,9.40
2023-04-20T20:16:32.784Z,9.38
2023-04-20T20:19:01.203Z,9.36
2023-04-20T20:21:29.497Z,9.35
2023-04-20T20:23:57.699Z,9.35
2023-04-20T20:26:25.738Z,9.33
2023-04-20T20:28:53.881Z,9.32
2023-04-20T20:31:22.466Z,9.30
2023-04-20T20:33:51.136Z,9.30
2023-04-20T20:36:19.320Z,9.30
2023-04-20T20:38:47.505Z,9.30
2023-04-20T20:41:16.336Z,9.29
2023-04-20T20:43:45.935Z,9.26
2023-04-20T20:46:14.249Z,9.22
2023-04-20T20:48:42.722Z,9.21
2023-04-20T20:51:11.750Z,9.18
2023-04-20T20:53:40.042Z,9.17
2023-04-20T20:56:08.871Z,9.15
2023-04-20T20:58:37.346Z,9.13
2023-04-20T21:01:06.348Z,9.12
2023-04-20T21:03:34.971Z,9.12
2023-04-20T21:06:03.754Z,9.11
2023-04-20T21:08:32.047Z,9.09
2023-04-20T21:11:00.231Z,9.08
2023-04-20T21:13:28.857Z,9.07
2023-04-20T21:15:57.335Z,9.05
2023-04-20T21:18:25.617Z,9.05
2023-04-20T21:20:53.701Z,9.04
2023-04-20T21:23:21.998Z,9.04
2023-04-20T21:25:50.209Z,9.03
2023-04-20T21:28:18.673Z,9.02
2023-04-20T21:30:46.785Z,9.00
2023-04-20T21:33:15.376Z,8.97
2023-04-20T21:35:43.948Z,8.96
2023-04-20T21:38:12.634Z,8.96
2023-04-20T21:40:40.754Z,8.95
2023-04-20T21:43:08.948Z,8.95
2023-04-20T21:45:37.774Z,8.95
2023-04-20T21:48:06.223Z,8.96
2023-04-20T21:50:36.850Z,8.95
2023-04-20T21:53:05.105Z,8.95
2023-04-20T21:55:33.491Z,8.96
2023-04-20T21:58:01.764Z,8.97
2023-04-20T22:00:30.068Z,8.97
2023-04-20T22:02:58.439Z,8.97
2023-04-20T22:05:27.963Z,8.98
2023-04-20T22:07:59.217Z,8.99
2023-04-20T22:10:28.718Z,9.00
2023-04-20T22:12:56.992Z,9.01
2023-04-20T22:15:26.160Z,9.02
2023-04-20T22:17:54.710Z,9.04
2023-04-20T22:20:22.787Z,9.07
2023-04-20T22:22:50.894Z,9.08
2023-04-20T22:25:18.852Z,9.09
2023-04-20T22:27:46.886Z,9.10
2023-04-20T22:30:14.968Z,9.11
2023-04-20T22:32:43.105Z,9.13
2023-04-20T22:35:11.158Z,9.15
2023-04-20T22:37:39.114Z,9.17
2023-04-20T22:40:07.995Z,9.19
2023-04-20T22:42:38.804Z,9.21
2023-04-20T22:45:09.403Z,9.23
2023-04-20T22:47:38.382Z,9.26
2023-04-20T22:50:06.960Z,9.28
2023-04-20T22:55:54.830Z,9.33
2023-04-20T22:58:23.175Z,9.31
2023-04-20T23:00:51.517Z,9.30
2023-04-20T23:03:20.177Z,9.29
2023-04-20T23:05:48.745Z,9.29
2023-04-20T23:08:17.762Z,9.26
2023-04-20T23:10:47.556Z,9.23
2023-04-20T23:13:18.619Z,9.22
2023-04-20T23:15:46.750Z,9.21
2023-04-20T23:18:15.275Z,9.22
2023-04-20T23:20:43.500Z,9.21
2023-04-20T23:23:11.848Z,9.21
2023-04-20T23:25:39.874Z,9.20
2023-04-20T23:28:08.207Z,9.20
2023-04-20T23:30:36.644Z,9.20
2023-04-20T23:33:05.170Z,9.21
2023-04-20T23:35:34.416Z,9.21
2023-04-20T23:38:04.028Z,9.21
2023-04-20T23:40:33.124Z,9.21
2023-04-20T23:43:01.521Z,9.21
2023-04-20T23:45:30.003Z,9.21
2023-04-20T23:47:58.189Z,9.21
2023-04-20T23:50:26.683Z,9.20
2023-04-20T23:52:54.850Z,9.20
2023-04-20T23:55:23.134Z,9.20
2023-04-20T23:57:52.937Z,9.18
